createdAt,value
2018-07-11T00:01:55.765Z,69.03
2018-07-11T00:04:25.270Z,70.03
2018-07-11T00:06:54.578Z,59.10
2018-07-11T00:09:23.933Z,77.17
2018-07-11T00:11:53.246Z,77.07
2018-07-11T00:14:22.613Z,65.93
2018-07-11T00:16:56.991Z,69.73
2018-07-11T00:19:25.734Z,64.60
2018-07-11T00:21:55.083Z,78.27
2018-07-11T00:24:23.829Z,54.40
2018-07-11T00:26:53.163Z,55.83
2018-07-11T00:29:21.920Z,70.37
2018-07-11T00:31:51.310Z,59.97
2018-07-11T00:34:20.752Z,65.93
2018-07-11T00:36:50.238Z,59.57
2018-07-11T00:39:19.738Z,48.70
2018-07-11T00:41:49.239Z,67.70
2018-07-11T00:44:18.697Z,65.03
2018-07-11T00:46:48.196Z,57.37
2018-07-11T00:49:17.638Z,57.90
2018-07-11T00:51:47.093Z,58.97
2018-07-11T00:54:15.962Z,60.20
2018-07-11T00:56:45.447Z,56.00
2018-07-11T00:59:23.376Z,56.67
2018-07-11T01:01:52.205Z,52.63
2018-07-11T01:04:21.631Z,56.07
2018-07-11T01:06:51.359Z,57.83
2018-07-11T01:09:20.746Z,61.80
2018-07-11T01:11:50.257Z,67.43
2018-07-11T01:14:19.763Z,61.53
2018-07-11T01:16:49.232Z,51.53
2018-07-11T01:19:18.797Z,59.77
2018-07-11T01:21:52.670Z,52.73
2018-07-11T01:24:22.002Z,54.77
2018-07-11T01:26:51.314Z,65.80
2018-07-11T01:29:20.744Z,59.43
2018-07-11T01:31:50.079Z,55.17
2018-07-11T01:34:19.371Z,63.83
2018-07-11T01:36:48.767Z,68.93
2018-07-11T01:39:18.132Z,71.87
2018-07-11T01:41:47.489Z,60.53
2018-07-11T01:44:16.789Z,57.00
2018-07-11T01:46:50.570Z,61.50
2018-07-11T01:49:20.113Z,67.13
2018-07-11T01:52:00.289Z,59.23
2018-07-11T01:54:29.874Z,58.80
2018-07-11T01:56:59.337Z,55.47
2018-07-11T01:59:31.221Z,52.13
2018-07-11T02:02:00.702Z,54.90
2018-07-11T02:04:30.391Z,42.67
2018-07-11T02:06:59.979Z,51.53
2018-07-11T02:09:29.853Z,57.40
2018-07-11T02:11:59.323Z,54.20
2018-07-11T02:14:29.092Z,49.30
2018-07-11T02:16:58.884Z,48.73
2018-07-11T02:19:28.368Z,57.40
2018-07-11T02:21:58.958Z,51.47
2018-07-11T02:24:27.752Z,44.47
2018-07-11T02:26:57.102Z,52.73
2018-07-11T02:29:27.334Z,48.47
2018-07-11T02:31:56.831Z,51.43
2018-07-11T02:34:31.358Z,49.87
2018-07-11T02:37:00.607Z,49.37
2018-07-11T02:39:30.008Z,51.93
2018-07-11T02:41:59.835Z,52.00
2018-07-11T02:44:29.115Z,40.80
2018-07-11T02:47:03.076Z,53.80
2018-07-11T02:49:32.586Z,51.57
2018-07-11T02:52:02.036Z,63.30
2018-07-11T02:54:31.418Z,49.53
2018-07-11T02:57:00.921Z,52.03
2018-07-11T02:59:29.708Z,58.57
2018-07-11T03:01:59.234Z,63.03
2018-07-11T03:04:28.856Z,51.07
2018-07-11T03:06:58.263Z,61.10
2018-07-11T03:09:27.640Z,67.67
2018-07-11T03:11:57.081Z,54.43
2018-07-11T03:14:26.788Z,59.67
2018-07-11T03:16:56.173Z,61.83
2018-07-11T03:19:25.538Z,61.60
2018-07-11T03:21:54.376Z,55.60
2018-07-11T03:24:24.458Z,62.20
2018-07-11T03:26:54.129Z,57.67
2018-07-11T03:29:23.453Z,57.83
2018-07-11T03:31:52.784Z,62.90
2018-07-11T03:34:22.056Z,66.50
2018-07-11T03:36:51.524Z,64.03
2018-07-11T03:39:20.858Z,64.03
2018-07-11T03:41:50.219Z,61.40
2018-07-11T03:44:19.565Z,58.37
2018-07-11T03:46:48.929Z,64.50
2018-07-11T03:49:18.376Z,61.40
2018-07-11T03:51:47.734Z,60.57
2018-07-11T03:54:17.076Z,59.17
2018-07-11T03:56:46.411Z,70.33
2018-07-11T03:59:15.815Z,63.63
2018-07-11T04:01:45.190Z,58.80
2018-07-11T04:04:14.612Z,54.40
2018-07-11T04:06:44.040Z,52.20
2018-07-11T04:09:13.530Z,60.70
2018-07-11T04:11:42.838Z,55.20
2018-07-11T04:14:12.203Z,71.87
2018-07-11T04:16:41.576Z,62.67
2018-07-11T04:19:10.962Z,67.30
2018-07-11T04:21:40.228Z,65.83
2018-07-11T04:24:09.603Z,64.60
2018-07-11T04:26:39.036Z,53.93
2018-07-11T04:29:08.501Z,52.70
2018-07-11T04:31:38.016Z,57.00
2018-07-11T04:34:07.912Z,54.07
2018-07-11T04:36:37.361Z,60.20
2018-07-11T04:39:06.773Z,65.77
2018-07-11T04:41:36.243Z,64.60
2018-07-11T04:44:05.728Z,55.50
2018-07-11T04:46:35.326Z,57.70
2018-07-11T04:49:04.754Z,72.20
2018-07-11T04:51:34.669Z,67.67
2018-07-11T04:54:04.134Z,61.50
2018-07-11T04:56:33.598Z,56.50
2018-07-11T04:59:03.003Z,61.97
2018-07-11T05:01:32.322Z,59.80
2018-07-11T05:04:01.791Z,66.07
2018-07-11T05:06:31.170Z,65.43
2018-07-11T05:09:00.421Z,69.30
2018-07-11T05:11:29.748Z,58.17
2018-07-11T05:13:59.068Z,66.07
2018-07-11T05:16:28.315Z,62.20
2018-07-11T05:18:57.673Z,65.97
2018-07-11T05:21:26.948Z,44.00
2018-07-11T05:23:56.327Z,68.07
2018-07-11T05:26:25.650Z,59.87
2018-07-11T05:28:55.077Z,64.43
2018-07-11T05:31:24.369Z,72.37
2018-07-11T05:33:53.771Z,60.53
2018-07-11T05:36:23.123Z,58.50
2018-07-11T05:38:52.420Z,53.10
2018-07-11T05:41:22.500Z,69.57
2018-07-11T05:43:51.935Z,52.27
2018-07-11T05:46:21.222Z,51.97
2018-07-11T05:48:50.000Z,48.57
2018-07-11T05:51:18.816Z,52.33
2018-07-11T05:53:48.130Z,53.80
2018-07-11T05:56:17.471Z,59.67
2018-07-11T05:58:46.785Z,65.03
2018-07-11T06:01:15.540Z,63.70
2018-07-11T06:03:44.856Z,67.47
2018-07-11T06:06:14.205Z,53.33
2018-07-11T06:08:43.577Z,49.83
2018-07-11T06:11:18.497Z,53.97
2018-07-11T06:13:47.794Z,50.73
2018-07-11T06:16:17.235Z,56.90
2018-07-11T06:18:46.681Z,45.90
2018-07-11T06:21:16.025Z,52.13
2018-07-11T06:23:44.816Z,49.00
2018-07-11T06:26:14.156Z,51.37
2018-07-11T06:28:43.775Z,47.90
2018-07-11T06:31:13.124Z,67.50
2018-07-11T06:33:41.936Z,59.77
2018-07-11T06:36:11.326Z,55.17
2018-07-11T06:38:40.783Z,55.87
2018-07-11T06:41:10.101Z,56.37
2018-07-11T06:43:39.577Z,61.57
2018-07-11T06:46:08.960Z,62.40
2018-07-11T06:48:38.353Z,70.00
2018-07-11T06:51:07.798Z,62.50
2018-07-11T06:53:37.219Z,57.50
2018-07-11T06:56:05.994Z,56.70
2018-07-11T06:58:34.778Z,71.10
2018-07-11T07:01:04.091Z,65.10
2018-07-11T07:03:33.450Z,55.80
2018-07-11T07:06:02.724Z,54.40
2018-07-11T07:08:32.033Z,64.40
2018-07-11T07:11:01.360Z,63.50
2018-07-11T07:13:30.705Z,81.73
2018-07-11T07:16:00.048Z,57.47
2018-07-11T07:18:29.416Z,68.17
2018-07-11T07:20:58.757Z,68.07
2018-07-11T07:23:28.113Z,60.07
2018-07-11T07:25:57.464Z,72.57
2018-07-11T07:28:26.790Z,70.73
2018-07-11T07:30:56.137Z,70.40
2018-07-11T07:33:25.462Z,58.20
2018-07-11T07:35:54.864Z,67.67
2018-07-11T07:38:24.323Z,51.10
2018-07-11T07:40:53.628Z,62.47
2018-07-11T07:43:22.631Z,66.93
2018-07-11T07:45:52.102Z,53.43
2018-07-11T07:48:21.593Z,55.23
2018-07-11T07:50:51.040Z,58.90
2018-07-11T07:53:19.994Z,58.80
2018-07-11T07:55:49.480Z,58.70
2018-07-11T07:58:19.096Z,58.53
2018-07-11T08:00:48.664Z,72.73
2018-07-11T08:03:18.050Z,58.13
2018-07-11T08:05:47.398Z,67.63
2018-07-11T08:08:17.033Z,61.80
2018-07-11T08:10:46.448Z,57.50
2018-07-11T08:13:15.293Z,52.83
2018-07-11T08:15:44.622Z,89.23
2018-07-11T08:18:14.184Z,56.50
2018-07-11T08:20:43.588Z,63.17
2018-07-11T08:23:26.521Z,64.20
2018-07-11T08:26:07.314Z,69.37
2018-07-11T08:30:51.997Z,56.90
2018-07-11T08:35:33.281Z,52.60
2018-07-11T08:38:18.201Z,46.87
2018-07-11T08:41:02.126Z,53.67
2018-07-11T08:46:20.591Z,53.50
2018-07-11T08:51:08.783Z,37.47
2018-07-11T08:54:00.421Z,37.07
2018-07-11T08:59:56.439Z,33.47
2018-07-11T09:05:45.174Z,40.70
2018-07-11T09:08:41.941Z,43.83
2018-07-11T09:11:39.447Z,37.07
2018-07-11T09:16:22.189Z,49.13
2018-07-11T09:21:09.482Z,33.47
2018-07-11T09:23:52.666Z,33.97
2018-07-11T09:26:22.018Z,46.57
2018-07-11T09:28:51.334Z,42.67
2018-07-11T09:31:20.739Z,45.30
2018-07-11T09:33:50.123Z,46.53
2018-07-11T09:36:19.532Z,40.60
2018-07-11T09:38:48.916Z,45.13
2018-07-11T09:41:18.520Z,42.77
2018-07-11T09:43:47.940Z,43.07
2018-07-11T09:46:17.439Z,40.17
2018-07-11T09:48:47.288Z,48.13
2018-07-11T09:51:16.845Z,49.37
2018-07-11T09:53:46.154Z,34.97
2018-07-11T09:56:15.697Z,44.20
2018-07-11T09:58:44.657Z,42.93
2018-07-11T10:01:19.274Z,36.40
2018-07-11T10:03:48.795Z,38.93
2018-07-11T10:06:18.235Z,35.87
2018-07-11T10:08:48.170Z,38.80
2018-07-11T10:11:17.523Z,44.77
2018-07-11T10:13:47.107Z,37.93
2018-07-11T10:16:16.904Z,36.17
2018-07-11T10:18:53.671Z,43.13
2018-07-11T10:21:23.165Z,41.03
2018-07-11T10:23:52.933Z,43.23
2018-07-11T10:26:22.576Z,40.50
2018-07-11T10:28:52.273Z,41.90
2018-07-11T10:31:21.847Z,49.30
2018-07-11T10:33:51.242Z,45.87
2018-07-11T10:36:23.722Z,39.25
2018-07-11T10:38:53.203Z,39.60
2018-07-11T10:41:22.750Z,36.77
2018-07-11T10:43:52.171Z,42.13
2018-07-11T10:46:21.660Z,41.30
2018-07-11T10:48:51.069Z,33.23
2018-07-11T10:51:20.640Z,39.37
2018-07-11T10:53:50.180Z,37.97
2018-07-11T10:56:19.792Z,52.77
2018-07-11T10:58:48.645Z,49.00
2018-07-11T11:01:19.478Z,41.42
2018-07-11T11:03:48.880Z,50.80
2018-07-11T11:06:18.301Z,43.30
2018-07-11T11:08:47.748Z,45.47
2018-07-11T11:11:17.549Z,48.27
2018-07-11T11:13:47.045Z,42.83
2018-07-11T11:16:16.483Z,43.20
2018-07-11T11:18:45.948Z,43.40
2018-07-11T11:21:15.498Z,39.83
2018-07-11T11:23:44.855Z,43.10
2018-07-11T11:26:14.307Z,39.10
2018-07-11T11:28:43.674Z,35.20
2018-07-11T11:31:13.075Z,41.10
2018-07-11T11:33:42.389Z,30.03
2018-07-11T11:36:11.808Z,42.70
2018-07-11T11:38:41.163Z,36.40
2018-07-11T11:41:10.539Z,43.57
2018-07-11T11:43:40.063Z,31.17
2018-07-11T11:46:09.386Z,41.40
2018-07-11T11:48:38.713Z,33.23
2018-07-11T11:51:08.105Z,40.63
2018-07-11T11:53:37.435Z,40.00
2018-07-11T11:56:06.817Z,29.43
2018-07-11T11:58:36.291Z,35.10
2018-07-11T12:01:05.630Z,29.53
2018-07-11T12:03:35.093Z,33.00
2018-07-11T12:06:04.479Z,31.53
2018-07-11T12:08:33.776Z,37.73
2018-07-11T12:11:03.202Z,30.20
2018-07-11T12:13:32.642Z,34.47
2018-07-11T12:16:02.475Z,36.07
2018-07-11T12:18:31.847Z,29.90
2018-07-11T12:21:01.278Z,35.97
2018-07-11T12:23:30.765Z,35.97
2018-07-11T12:26:09.389Z,34.23
2018-07-11T12:28:38.931Z,34.23
2018-07-11T12:31:08.291Z,31.17
2018-07-11T12:33:37.723Z,32.37
2018-07-11T12:36:07.039Z,40.67
2018-07-11T12:38:36.504Z,28.87
2018-07-11T12:41:05.925Z,39.63
2018-07-11T12:43:35.365Z,35.43
2018-07-11T12:46:04.797Z,32.60
2018-07-11T12:48:39.424Z,34.33
2018-07-11T12:51:08.991Z,33.10
2018-07-11T12:53:38.464Z,32.60
2018-07-11T12:56:07.900Z,27.73
2018-07-11T12:58:37.427Z,35.63
2018-07-11T13:01:08.070Z,29.87
2018-07-11T13:03:38.213Z,32.83
2018-07-11T13:06:09.045Z,31.90
2018-07-11T13:08:38.749Z,39.73
2018-07-11T13:11:08.402Z,28.83
2018-07-11T13:13:37.918Z,35.33
2018-07-11T13:16:07.407Z,29.57
2018-07-11T13:18:36.878Z,35.23
2018-07-11T13:21:06.180Z,34.60
2018-07-11T13:23:35.529Z,33.60
2018-07-11T13:26:04.993Z,31.50
2018-07-11T13:28:34.298Z,31.40
2018-07-11T13:31:05.224Z,33.37
2018-07-11T13:33:34.633Z,34.17
2018-07-11T13:36:04.037Z,25.03
2018-07-11T13:38:33.617Z,25.10
2018-07-11T13:41:03.070Z,32.23
2018-07-11T13:43:32.459Z,34.77
2018-07-11T13:46:01.914Z,35.23
2018-07-11T13:48:31.294Z,36.80
2018-07-11T13:51:00.651Z,27.00
2018-07-11T13:53:30.084Z,37.10
2018-07-11T13:55:59.610Z,33.67
2018-07-11T13:58:29.193Z,41.43
2018-07-11T14:00:58.697Z,27.90
2018-07-11T14:03:28.832Z,28.87
2018-07-11T14:05:58.287Z,32.37
2018-07-11T14:08:27.883Z,29.13
2018-07-11T14:10:57.347Z,30.53
2018-07-11T14:13:26.827Z,40.70
2018-07-11T14:15:56.330Z,31.67
2018-07-11T14:18:26.065Z,29.53
2018-07-11T14:20:55.749Z,36.87
2018-07-11T14:23:37.839Z,29.33
2018-07-11T14:26:08.200Z,24.30
2018-07-11T14:28:47.807Z,34.23
2018-07-11T14:31:27.954Z,32.53
2018-07-11T14:33:58.064Z,34.83
2018-07-11T14:36:27.554Z,36.30
2018-07-11T14:38:56.984Z,40.43
2018-07-11T14:41:26.537Z,31.73
2018-07-11T14:43:56.953Z,32.93
2018-07-11T14:46:27.785Z,35.50
2018-07-11T14:48:57.438Z,36.73
2018-07-11T14:51:27.269Z,39.03
2018-07-11T14:53:57.631Z,28.37
2018-07-11T14:56:27.063Z,35.77
2018-07-11T14:58:57.662Z,31.27
2018-07-11T15:01:27.090Z,25.67
2018-07-11T15:03:56.446Z,30.60
2018-07-11T15:06:25.934Z,35.43
2018-07-11T15:08:56.317Z,33.03
2018-07-11T15:11:25.964Z,48.03
2018-07-11T15:13:55.435Z,39.47
2018-07-11T15:16:25.414Z,39.63
2018-07-11T15:18:54.839Z,34.47
2018-07-11T15:21:24.270Z,31.03
2018-07-11T15:23:53.805Z,43.90
2018-07-11T15:26:23.337Z,31.83
2018-07-11T15:28:52.996Z,29.27
2018-07-11T15:31:22.490Z,30.27
2018-07-11T15:33:53.478Z,27.53
2018-07-11T15:36:22.913Z,35.73
2018-07-11T15:38:52.400Z,24.90
2018-07-11T15:41:21.920Z,26.23
2018-07-11T15:43:51.466Z,20.23
2018-07-11T15:46:21.549Z,28.83
2018-07-11T15:48:51.200Z,29.67
2018-07-11T15:51:20.771Z,27.30
2018-07-11T15:53:49.638Z,18.20
2018-07-11T15:56:19.140Z,28.40
2018-07-11T15:58:55.410Z,21.67
2018-07-11T16:01:24.999Z,28.00
2018-07-11T16:03:54.399Z,29.30
2018-07-11T16:06:23.829Z,21.30
2018-07-11T16:08:53.435Z,20.10
2018-07-11T16:11:22.815Z,23.50
2018-07-11T16:13:52.145Z,28.70
2018-07-11T16:16:21.592Z,23.70
2018-07-11T16:18:51.711Z,21.03
2018-07-11T16:21:21.239Z,29.90
2018-07-11T16:23:51.784Z,17.53
2018-07-11T16:26:21.518Z,24.97
2018-07-11T16:28:50.397Z,93.47
2018-07-11T16:31:20.316Z,19.90
2018-07-11T16:33:50.149Z,45.97
2018-07-11T16:36:19.807Z,37.77
2018-07-11T16:38:49.210Z,18.33
2018-07-11T16:41:19.716Z,29.57
2018-07-11T16:43:50.372Z,18.90
2018-07-11T16:46:19.920Z,28.70
2018-07-11T16:48:49.434Z,21.27
2018-07-11T16:51:19.306Z,23.20
2018-07-11T16:53:50.333Z,18.77
2018-07-11T16:56:20.012Z,20.77
2018-07-11T16:58:54.168Z,31.53
2018-07-11T17:01:30.113Z,22.93
2018-07-11T17:03:59.634Z,23.43
2018-07-11T17:06:29.155Z,30.83
2018-07-11T17:08:58.047Z,13.70
2018-07-11T17:11:28.021Z,22.53
2018-07-11T17:14:04.695Z,23.87
2018-07-11T17:16:40.063Z,32.00
2018-07-11T17:19:17.123Z,26.47
2018-07-11T17:21:50.212Z,19.30
2018-07-11T17:24:22.186Z,20.03
2018-07-11T17:26:55.579Z,28.67
2018-07-11T17:29:30.463Z,29.57
2018-07-11T17:32:05.344Z,24.20
2018-07-11T17:34:37.533Z,21.07
2018-07-11T17:37:07.875Z,20.70
2018-07-11T17:39:48.891Z,26.70
2018-07-11T17:42:30.049Z,24.90
2018-07-11T17:45:10.473Z,21.83
2018-07-11T17:48:07.061Z,173.20
2018-07-11T17:50:39.147Z,28.07
2018-07-11T17:53:13.736Z,44.43
2018-07-11T17:56:05.561Z,37.57
2018-07-11T17:58:45.801Z,23.53
2018-07-11T18:01:15.355Z,24.50
2018-07-11T18:04:07.075Z,22.80
2018-07-11T18:06:41.465Z,21.30
2018-07-11T18:09:13.981Z,22.87
2018-07-11T18:11:56.667Z,15.20
2018-07-11T18:15:02.652Z,15.10
2018-07-11T18:19:45.289Z,19.77
2018-07-11T18:22:38.635Z,11.17
2018-07-11T18:25:34.043Z,16.20
2018-07-11T18:28:16.258Z,26.77
2018-07-11T18:30:55.105Z,28.50
2018-07-11T18:33:37.888Z,19.53
2018-07-11T18:38:23.287Z,28.27
2018-07-11T18:41:10.633Z,19.60
2018-07-11T18:47:57.032Z,22.33
2018-07-11T18:51:34.688Z,16.00
2018-07-11T18:54:10.714Z,16.27
2018-07-11T18:56:49.346Z,16.50
2018-07-11T19:02:29.847Z,27.30
2018-07-11T19:05:11.809Z,14.27
2018-07-11T19:07:51.497Z,25.53
2018-07-11T19:10:35.219Z,22.47
2018-07-11T19:13:14.411Z,27.73
2018-07-11T19:15:46.057Z,26.37
2018-07-11T19:18:22.185Z,17.60
2018-07-11T19:21:07.758Z,31.80
2018-07-11T19:23:49.596Z,26.13
2018-07-11T19:26:55.648Z,27.03
2018-07-11T19:30:34.338Z,25.30
2018-07-11T19:33:08.424Z,16.90
2018-07-11T19:35:52.559Z,15.60
2018-07-11T19:38:43.031Z,22.52
2018-07-11T19:41:21.894Z,28.00
2018-07-11T19:46:04.779Z,20.30
2018-07-11T19:50:53.654Z,12.63
2018-07-11T19:53:33.889Z,19.83
2018-07-11T19:56:25.722Z,19.13
2018-07-11T19:58:55.146Z,16.00
2018-07-11T20:01:24.515Z,11.00
2018-07-11T20:03:53.940Z,15.97
2018-07-11T20:06:23.328Z,22.63
2018-07-11T20:08:53.279Z,24.00
2018-07-11T20:11:23.087Z,13.70
2018-07-11T20:13:53.938Z,16.33
2018-07-11T20:16:24.037Z,15.93
2018-07-11T20:18:53.612Z,12.23
2018-07-11T20:21:23.783Z,19.57
2018-07-11T20:23:53.107Z,17.23
2018-07-11T20:26:22.419Z,14.20
2018-07-11T20:28:51.337Z,18.27
2018-07-11T20:31:20.824Z,21.67
2018-07-11T20:33:50.087Z,22.87
2018-07-11T20:36:19.489Z,9.90
2018-07-11T20:38:48.799Z,19.40
2018-07-11T20:41:18.118Z,15.10
2018-07-11T20:43:47.292Z,19.50
2018-07-11T20:46:16.790Z,23.67
2018-07-11T20:48:46.265Z,23.50
2018-07-11T20:51:15.707Z,13.90
2018-07-11T20:53:45.092Z,14.97
2018-07-11T20:56:14.631Z,13.70
2018-07-11T20:58:48.719Z,14.80
2018-07-11T21:01:28.754Z,15.63
2018-07-11T21:04:40.184Z,19.73
2018-07-11T21:08:21.130Z,16.62
2018-07-11T21:10:57.736Z,26.57
2018-07-11T21:15:20.885Z,26.87
2018-07-11T21:19:59.639Z,11.80
2018-07-11T21:22:29.086Z,27.23
2018-07-11T21:24:58.392Z,31.70
2018-07-11T21:27:27.786Z,17.87
2018-07-11T21:29:57.084Z,23.47
2018-07-11T21:32:26.365Z,14.67
2018-07-11T21:34:55.710Z,24.07
2018-07-11T21:37:25.300Z,19.63
2018-07-11T21:39:54.822Z,19.10
2018-07-11T21:42:24.254Z,22.27
2018-07-11T21:44:53.843Z,31.17
2018-07-11T21:47:23.764Z,27.00
2018-07-11T21:49:53.122Z,16.00
2018-07-11T21:52:22.447Z,18.73
2018-07-11T21:54:51.749Z,19.35
2018-07-11T21:57:21.138Z,19.80
2018-07-11T21:59:50.858Z,24.17
2018-07-11T22:02:20.302Z,24.00
2018-07-11T22:04:49.641Z,29.13
2018-07-11T22:07:19.632Z,21.57
2018-07-11T22:09:48.980Z,22.43
2018-07-11T22:12:18.621Z,19.97
2018-07-11T22:14:47.989Z,20.93
2018-07-11T22:18:30.347Z,25.03
2018-07-11T22:20:58.068Z,18.53
2018-07-11T22:23:25.840Z,20.47
2018-07-11T22:25:53.591Z,21.73
2018-07-11T22:28:21.606Z,19.57
2018-07-11T22:30:49.347Z,16.53
2018-07-11T22:33:17.139Z,16.63
2018-07-11T22:35:44.880Z,22.47
2018-07-11T22:38:13.331Z,16.93
2018-07-11T22:40:41.521Z,17.13
2018-07-11T22:43:09.263Z,23.40
2018-07-11T22:45:37.009Z,17.83
2018-07-11T22:48:04.746Z,25.00
2018-07-11T22:50:32.465Z,19.37
2018-07-11T22:53:00.227Z,18.13
2018-07-11T22:55:28.003Z,16.77
2018-07-11T22:57:55.763Z,21.30
2018-07-11T23:00:23.536Z,12.77
2018-07-11T23:02:51.320Z,17.67
2018-07-11T23:05:19.069Z,23.73
2018-07-11T23:07:46.825Z,14.63
2018-07-11T23:10:14.642Z,22.07
2018-07-11T23:12:42.365Z,14.30
2018-07-11T23:15:10.105Z,20.37
2018-07-11T23:17:37.884Z,18.57
2018-07-11T23:20:05.636Z,22.77
2018-07-11T23:22:33.378Z,22.23
2018-07-11T23:25:01.152Z,21.17
2018-07-11T23:27:28.906Z,18.37
2018-07-11T23:29:56.680Z,20.57
2018-07-11T23:32:24.472Z,21.10
2018-07-11T23:34:52.219Z,26.77
2018-07-11T23:37:20.012Z,16.07
2018-07-11T23:39:48.025Z,19.43
2018-07-11T23:42:15.756Z,15.33
2018-07-11T23:44:43.814Z,23.53
2018-07-11T23:47:11.813Z,21.17
2018-07-11T23:49:39.540Z,15.43
2018-07-11T23:52:07.332Z,18.20
2018-07-11T23:54:35.081Z,15.77
2018-07-11T23:57:03.099Z,18.20
2018-07-11T23:59:30.868Z,23.77
